Time;durP1;ratioP1;P1;durP2;ratioP2;P2;SDS_P1;SDS_P2;PMS_P1;PMS_P2;Temp;Humidity;BMP_temperature;BMP_pressure;BME280_temperature;BME280_humidity;BME280_pressure;Samples;Min_cycle;Max_cycle;Signal;HPM_P1;HPM_P2
2023/05/09 00:01:13;;;;;;;2.20;2.00;;;14.70;38.00;;;;;;5054372;28;20411;-71
2023/05/09 00:03:39;;;;;;;2.30;2.10;;;14.70;37.30;;;;;;5054605;28;20107;-72
2023/05/09 00:06:05;;;;;;;2.72;2.10;;;14.70;37.40;;;;;;5053166;28;20036;-70
2023/05/09 00:08:31;;;;;;;2.80;2.00;;;14.70;37.40;;;;;;5052522;28;20029;-71
2023/05/09 00:10:57;;;;;;;2.80;2.03;;;14.70;37.50;;;;;;5053084;28;20032;-71
2023/05/09 00:13:24;;;;;;;2.10;1.90;;;14.70;37.60;;;;;;5054323;28;20382;-71
2023/05/09 00:15:52;;;;;;;2.15;1.95;;;14.70;37.60;;;;;;5054049;28;20109;-71
2023/05/09 00:18:21;;;;;;;4.63;2.10;;;14.60;37.70;;;;;;5054281;28;20021;-71
2023/05/09 00:20:48;;;;;;;3.00;2.20;;;14.60;37.70;;;;;;5054173;28;20514;-71
2023/05/09 00:23:14;;;;;;;3.17;1.98;;;14.60;37.70;;;;;;5053074;28;20103;-71
2023/05/09 00:25:39;;;;;;;2.25;2.00;;;14.60;38.40;;;;;;5052833;28;20029;-70
2023/05/09 00:28:05;;;;;;;2.47;2.28;;;14.50;37.80;;;;;;5054367;28;20052;-71
2023/05/09 00:30:31;;;;;;;2.30;2.08;;;14.50;37.90;;;;;;5054053;28;20068;-70
2023/05/09 00:32:56;;;;;;;2.50;2.03;;;14.50;37.90;;;;;;5052803;28;20115;-70
2023/05/09 00:35:22;;;;;;;2.47;2.10;;;14.50;38.00;;;;;;5053869;28;20094;-70
2023/05/09 00:37:48;;;;;;;3.15;2.33;;;14.50;38.10;;;;;;5052746;28;20532;-71
2023/05/09 00:40:13;;;;;;;2.78;2.10;;;14.40;38.10;;;;;;5053869;28;20017;-71
2023/05/09 00:42:39;;;;;;;2.50;2.15;;;14.40;38.10;;;;;;5053745;28;20033;-72
2023/05/09 00:45:06;;;;;;;3.45;2.50;;;14.40;38.10;;;;;;5051917;28;20052;-71
2023/05/09 00:47:33;;;;;;;3.67;2.20;;;14.40;38.10;;;;;;5053969;28;20021;-71
2023/05/09 00:50:00;;;;;;;3.00;2.13;;;14.40;38.20;;;;;;5054088;28;20053;-71
2023/05/09 00:52:26;;;;;;;2.40;2.10;;;14.40;38.20;;;;;;5053876;28;20031;-72
2023/05/09 00:54:54;;;;;;;4.47;2.50;;;14.40;38.20;;;;;;5053778;28;20067;-71
2023/05/09 00:57:20;;;;;;;2.80;2.05;;;14.40;38.30;;;;;;5035861;28;20483;-71
2023/05/09 00:59:46;;;;;;;2.42;2.13;;;14.40;38.20;;;;;;5053660;28;20036;-71
2023/05/09 01:02:12;;;;;;;2.58;2.13;;;14.40;38.30;;;;;;5053424;28;20022;-71
2023/05/09 01:04:39;;;;;;;2.50;2.00;;;14.40;38.30;;;;;;5053388;28;20025;-71
2023/05/09 01:07:34;;;;;;;2.50;2.17;;;14.40;38.30;;;;;;5053400;28;20365;-72
2023/05/09 01:10:17;;;;;;;3.80;2.43;;;14.40;38.40;;;;;;5053628;28;20027;-72
2023/05/09 01:13:03;;;;;;;3.28;2.15;;;14.30;38.40;;;;;;5052487;28;20090;-71
2023/05/09 01:15:53;;;;;;;2.75;2.20;;;14.30;38.50;;;;;;5052543;28;20463;-72
2023/05/09 01:18:26;;;;;;;2.88;2.15;;;14.30;38.40;;;;;;5053306;28;20029;-71
2023/05/09 01:21:19;;;;;;;2.92;2.25;;;14.30;38.60;;;;;;5053967;28;20033;-73
2023/05/09 01:24:07;;;;;;;2.72;2.08;;;14.20;38.50;;;;;;5053459;28;20459;-72
2023/05/09 01:27:14;;;;;;;4.28;2.25;;;14.20;38.90;;;;;;5053232;28;20021;-71
2023/05/09 01:29:46;;;;;;;2.78;2.00;;;14.20;38.80;;;;;;5052298;28;20060;-71
2023/05/09 01:32:30;;;;;;;2.45;2.10;;;14.20;38.60;;;;;;5053245;28;20021;-72
2023/05/09 01:34:59;;;;;;;2.50;2.30;;;14.20;38.90;;;;;;5053319;28;20032;-73
2023/05/09 01:37:34;;;;;;;2.83;2.33;;;14.20;38.70;;;;;;5051845;28;20029;-72
2023/05/09 01:40:06;;;;;;;2.53;2.33;;;14.20;38.80;;;;;;5053146;28;20060;-72
2023/05/09 01:42:41;;;;;;;3.35;2.40;;;14.20;38.90;;;;;;5053219;28;20123;-72
2023/05/09 01:45:09;;;;;;;2.40;2.20;;;14.10;38.90;;;;;;5051907;28;20111;-70
2023/05/09 01:47:36;;;;;;;3.63;2.30;;;14.10;38.90;;;;;;5051772;28;20028;-72
2023/05/09 01:50:03;;;;;;;3.13;2.30;;;14.10;39.00;;;;;;5053042;28;20464;-71
2023/05/09 01:52:30;;;;;;;2.60;2.40;;;14.10;39.10;;;;;;5053167;28;20037;-71
2023/05/09 01:54:59;;;;;;;2.78;2.42;;;14.00;39.10;;;;;;5051696;28;20052;-72
2023/05/09 01:57:26;;;;;;;3.05;2.60;;;14.10;39.10;;;;;;5051755;28;20056;-72
2023/05/09 01:59:53;;;;;;;2.33;2.13;;;14.00;39.20;;;;;;5052664;28;20032;-71
2023/05/09 02:02:18;;;;;;;2.45;2.25;;;14.00;39.20;;;;;;5053244;28;20052;-70
2023/05/09 02:04:46;;;;;;;3.50;2.45;;;14.00;39.30;;;;;;5051795;28;20052;-71
2023/05/09 02:07:12;;;;;;;3.03;2.50;;;14.00;39.30;;;;;;5052989;28;20056;-71
2023/05/09 02:09:38;;;;;;;2.70;2.47;;;14.00;39.30;;;;;;5052973;28;20107;-71
2023/05/09 02:12:03;;;;;;;3.42;2.30;;;13.90;39.30;;;;;;5051529;28;20025;-72
2023/05/09 02:14:30;;;;;;;2.60;2.33;;;14.00;39.40;;;;;;5052694;28;20534;-71
2023/05/09 02:16:56;;;;;;;4.07;2.55;;;13.90;39.40;;;;;;5052966;28;20036;-71
2023/05/09 02:19:22;;;;;;;4.18;2.50;;;13.90;39.40;;;;;;5053040;28;20025;-71
2023/05/09 02:21:47;;;;;;;2.78;2.38;;;13.90;39.50;;;;;;5051727;28;20107;-72
2023/05/09 02:24:13;;;;;;;4.43;2.72;;;13.90;39.60;;;;;;5052705;28;20094;-71
2023/05/09 02:26:40;;;;;;;2.85;2.33;;;13.90;39.70;;;;;;5052728;28;20021;-72
2023/05/09 02:29:07;;;;;;;2.60;2.40;;;13.90;39.70;;;;;;5052800;28;20052;-71
2023/05/09 02:31:34;;;;;;;2.30;2.10;;;13.90;39.60;;;;;;5055451;28;20099;-71
2023/05/09 02:34:03;;;;;;;3.40;2.60;;;13.90;39.70;;;;;;5056349;28;20032;-72
2023/05/09 02:36:30;;;;;;;3.50;2.25;;;13.90;39.70;;;;;;5056165;28;20040;-72
2023/05/09 02:38:56;;;;;;;3.10;2.58;;;13.90;39.70;;;;;;5054824;28;20029;-71
2023/05/09 02:41:21;;;;;;;2.58;2.38;;;13.90;39.70;;;;;;5056295;28;20120;-71
2023/05/09 02:43:47;;;;;;;2.75;2.42;;;13.90;39.70;;;;;;5055951;28;20387;-71
2023/05/09 02:46:13;;;;;;;3.25;2.60;;;13.90;39.80;;;;;;5056259;28;20451;-71
2023/05/09 02:48:38;;;;;;;2.50;2.30;;;13.90;39.80;;;;;;5056279;28;20399;-71
2023/05/09 02:51:04;;;;;;;3.88;2.70;;;13.90;39.70;;;;;;5055987;28;20021;-71
2023/05/09 02:53:30;;;;;;;2.90;2.50;;;13.90;39.70;;;;;;5055835;28;20033;-71
2023/05/09 02:55:55;;;;;;;2.88;2.58;;;13.90;39.80;;;;;;5055990;28;20021;-71
2023/05/09 02:58:21;;;;;;;3.40;2.50;;;13.90;39.90;;;;;;5055696;28;20024;-71
2023/05/09 03:00:46;;;;;;;3.00;2.67;;;13.90;39.90;;;;;;5055873;28;20025;-71
2023/05/09 03:03:12;;;;;;;2.95;2.30;;;13.90;39.90;;;;;;5056177;28;20036;-72
2023/05/09 03:05:38;;;;;;;3.35;2.20;;;13.90;39.90;;;;;;5055713;28;20386;-72
2023/05/09 03:08:04;;;;;;;2.65;2.20;;;13.90;39.90;;;;;;5055379;28;20063;-72
2023/05/09 03:10:29;;;;;;;2.78;2.40;;;13.80;39.90;;;;;;5054490;28;20121;-71
2023/05/09 03:12:55;;;;;;;3.47;2.55;;;13.90;40.00;;;;;;5055441;28;20489;-71
2023/05/09 03:15:20;;;;;;;2.75;2.40;;;13.90;40.00;;;;;;5055226;28;20057;-72
2023/05/09 03:17:46;;;;;;;2.67;2.40;;;13.90;39.90;;;;;;5054694;28;20483;-71
2023/05/09 03:20:12;;;;;;;3.28;2.25;;;13.90;40.00;;;;;;5053252;28;20105;-72
2023/05/09 03:22:38;;;;;;;2.50;2.30;;;13.90;40.00;;;;;;5054863;28;20036;-71
2023/05/09 03:25:05;;;;;;;2.53;2.25;;;13.90;39.90;;;;;;5054545;28;20034;-75
2023/05/09 03:27:31;;;;;;;2.67;2.13;;;13.90;39.90;;;;;;5037353;28;20112;-71
2023/05/09 03:29:57;;;;;;;2.65;2.45;;;14.00;40.00;;;;;;5035715;28;20061;-71
2023/05/09 03:32:22;;;;;;;2.85;2.50;;;14.00;40.00;;;;;;5053592;28;20056;-71
2023/05/09 03:34:48;;;;;;;2.85;2.60;;;14.00;40.00;;;;;;5055535;28;20040;-71
2023/05/09 03:37:14;;;;;;;4.45;2.90;;;14.00;40.00;;;;;;5053726;28;20373;-71
2023/05/09 03:39:39;;;;;;;2.95;2.55;;;14.00;40.00;;;;;;5049627;28;20467;-72
2023/05/09 03:42:05;;;;;;;3.05;2.67;;;14.00;39.90;;;;;;5044193;28;20079;-72
2023/05/09 03:44:31;;;;;;;3.47;2.50;;;14.00;39.90;;;;;;5044176;28;20435;-71
2023/05/09 03:46:56;;;;;;;3.92;2.70;;;14.10;39.90;;;;;;5044754;28;20021;-71
2023/05/09 03:49:22;;;;;;;4.20;3.00;;;14.10;39.90;;;;;;5044719;28;20071;-72
2023/05/09 03:51:48;;;;;;;5.60;2.60;;;14.10;39.90;;;;;;5042081;28;20547;-71
2023/05/09 03:54:13;;;;;;;3.97;2.50;;;14.20;39.80;;;;;;5044860;28;20028;-71
2023/05/09 03:56:39;;;;;;;3.92;2.58;;;14.20;39.70;;;;;;5044611;28;20036;-71
2023/05/09 03:59:05;;;;;;;3.85;2.80;;;14.20;39.70;;;;;;5043651;28;20105;-72
2023/05/09 04:01:30;;;;;;;4.22;2.65;;;14.20;39.70;;;;;;5041044;28;20022;-71
2023/05/09 04:03:56;;;;;;;3.13;2.35;;;14.30;39.60;;;;;;5034994;28;20095;-71
2023/05/09 04:06:22;;;;;;;4.80;2.35;;;14.30;39.70;;;;;;5037412;28;20035;-72
2023/05/09 04:08:48;;;;;;;2.38;2.17;;;14.30;39.60;;;;;;5054085;28;20108;-80
2023/05/09 04:11:14;;;;;;;2.30;2.10;;;14.40;40.40;;;;;;5053323;28;20029;-72
2023/05/09 04:13:39;;;;;;;3.13;2.47;;;14.50;40.20;;;;;;5052270;28;20029;-72
2023/05/09 04:16:05;;;;;;;4.30;2.90;;;14.50;40.00;;;;;;5053718;28;20029;-72
2023/05/09 04:18:31;;;;;;;3.63;2.67;;;14.60;39.90;;;;;;5052527;28;20078;-71
2023/05/09 04:20:56;;;;;;;3.55;2.92;;;14.60;39.80;;;;;;5048997;28;20032;-71
2023/05/09 04:23:22;;;;;;;3.70;2.90;;;14.70;39.70;;;;;;5042235;28;20036;-71
2023/05/09 04:25:50;;;;;;;4.22;3.10;;;14.70;39.70;;;;;;5043071;28;20029;-71
2023/05/09 04:28:16;;;;;;;3.17;2.67;;;14.70;39.60;;;;;;5041892;28;20021;-71
2023/05/09 04:30:41;;;;;;;2.92;2.47;;;14.70;39.50;;;;;;5044013;28;20053;-71
2023/05/09 04:33:07;;;;;;;2.67;2.45;;;14.70;39.50;;;;;;5042644;28;20037;-70
2023/05/09 04:35:32;;;;;;;3.50;2.60;;;14.70;39.40;;;;;;5041735;28;20028;-71
2023/05/09 04:37:58;;;;;;;2.42;2.22;;;14.70;39.40;;;;;;5044099;28;20079;-73
2023/05/09 04:40:24;;;;;;;2.83;2.20;;;14.70;39.30;;;;;;5051476;28;20017;-71
2023/05/09 04:42:50;;;;;;;2.60;2.28;;;14.70;39.30;;;;;;5048786;28;20037;-71
2023/05/09 04:45:16;;;;;;;4.55;2.40;;;14.70;39.30;;;;;;5052466;28;20445;-72
2023/05/09 04:47:42;;;;;;;4.22;2.50;;;14.80;39.20;;;;;;5053089;28;20047;-71
2023/05/09 04:50:08;;;;;;;2.53;2.10;;;14.70;39.10;;;;;;5052854;28;20514;-71
2023/05/09 04:52:33;;;;;;;2.85;2.40;;;14.80;39.20;;;;;;5051625;28;20044;-72
2023/05/09 04:54:59;;;;;;;4.07;2.40;;;14.80;39.10;;;;;;5052246;28;20025;-72
2023/05/09 04:57:25;;;;;;;4.57;2.60;;;14.80;39.10;;;;;;5052699;28;20419;-74
2023/05/09 04:59:51;;;;;;;2.75;2.40;;;14.80;39.10;;;;;;5053184;28;20411;-70
2023/05/09 05:02:17;;;;;;;2.40;2.15;;;14.80;39.00;;;;;;5053120;28;20459;-72
2023/05/09 05:04:43;;;;;;;4.80;2.30;;;14.90;39.00;;;;;;5052557;28;20032;-73
2023/05/09 05:07:08;;;;;;;3.20;2.45;;;14.90;38.90;;;;;;5051062;28;20044;-73
2023/05/09 05:09:34;;;;;;;4.20;2.35;;;14.90;38.90;;;;;;5052365;28;20479;-72
2023/05/09 05:12:00;;;;;;;4.00;2.25;;;15.00;38.80;;;;;;5039422;28;20022;-74
2023/05/09 05:14:25;;;;;;;3.35;2.22;;;15.00;38.80;;;;;;5032868;28;20120;-72
2023/05/09 05:16:51;;;;;;;2.60;1.95;;;15.00;38.60;;;;;;5032872;28;20033;-74
2023/05/09 05:19:17;;;;;;;2.05;1.85;;;15.00;38.60;;;;;;5032544;28;20031;-73
2023/05/09 05:21:42;;;;;;;2.10;1.80;;;15.10;38.60;;;;;;5032641;28;20026;-73
2023/05/09 05:24:08;;;;;;;2.85;2.00;;;15.10;38.60;;;;;;5032211;28;20079;-73
2023/05/09 05:26:34;;;;;;;2.33;2.13;;;15.10;38.50;;;;;;5032586;28;20083;-72
2023/05/09 05:28:59;;;;;;;2.40;1.98;;;15.10;38.40;;;;;;5032884;28;20050;-72
2023/05/09 05:31:25;;;;;;;2.13;1.95;;;15.10;39.00;;;;;;5031152;28;20029;-72
2023/05/09 05:33:50;;;;;;;2.33;1.90;;;15.10;38.40;;;;;;5032448;28;20034;-72
2023/05/09 05:36:16;;;;;;;2.80;2.10;;;15.10;38.30;;;;;;5030577;28;20026;-73
2023/05/09 05:38:42;;;;;;;2.15;1.90;;;15.20;38.40;;;;;;5031064;28;20456;-72
2023/05/09 05:41:10;;;;;;;1.80;1.70;;;15.20;38.40;;;;;;5031674;28;20467;-73
2023/05/09 05:43:36;;;;;;;2.78;2.00;;;15.20;38.30;;;;;;5031512;28;20116;-71
2023/05/09 05:46:01;;;;;;;2.00;1.80;;;15.20;38.30;;;;;;5032177;28;20101;-72
2023/05/09 05:48:27;;;;;;;3.42;1.92;;;15.20;38.20;;;;;;5032006;28;20025;-73
2023/05/09 05:50:52;;;;;;;2.00;1.80;;;15.30;38.20;;;;;;5031352;28;20030;-73
2023/05/09 05:53:18;;;;;;;2.38;2.17;;;15.30;38.10;;;;;;5031817;28;20025;-73
2023/05/09 05:55:44;;;;;;;2.03;1.83;;;15.30;37.90;;;;;;5031128;28;20112;-73
2023/05/09 05:58:10;;;;;;;2.13;1.95;;;15.30;37.90;;;;;;5033794;28;20025;-73
2023/05/09 06:00:36;;;;;;;4.70;1.75;;;15.30;38.00;;;;;;5050886;28;20032;-73
2023/05/09 06:03:01;;;;;;;1.70;1.60;;;15.30;37.90;;;;;;5038518;28;20040;-74
2023/05/09 06:05:27;;;;;;;3.00;1.60;;;15.30;37.80;;;;;;5031808;28;20132;-71
2023/05/09 06:07:53;;;;;;;1.98;1.67;;;15.30;37.80;;;;;;5041522;28;20111;-73
2023/05/09 06:10:18;;;;;;;3.03;1.55;;;15.40;37.70;;;;;;5034861;28;20033;-73
2023/05/09 06:12:44;;;;;;;2.17;1.98;;;15.40;37.60;;;;;;5041744;28;20438;-73
2023/05/09 06:15:10;;;;;;;1.80;1.70;;;15.40;37.50;;;;;;5043612;28;20383;-73
2023/05/09 06:17:35;;;;;;;2.10;1.70;;;15.40;37.50;;;;;;5043349;28;20463;-72
2023/05/09 06:20:01;;;;;;;1.70;1.60;;;15.50;37.40;;;;;;5044587;28;20048;-73
2023/05/09 06:22:27;;;;;;;1.50;1.40;;;15.50;37.40;;;;;;5045108;28;20501;-72
2023/05/09 06:24:53;;;;;;;1.65;1.50;;;15.50;37.40;;;;;;5041778;28;20117;-72
2023/05/09 06:27:18;;;;;;;1.50;1.40;;;15.60;37.30;;;;;;5044083;28;20080;-72
2023/05/09 06:29:44;;;;;;;1.80;1.60;;;15.60;37.10;;;;;;5038543;28;20049;-72
2023/05/09 06:32:10;;;;;;;1.83;1.73;;;15.60;37.00;;;;;;5045186;28;20029;-72
2023/05/09 06:34:35;;;;;;;1.40;1.30;;;15.70;37.10;;;;;;5041143;28;20040;-72
2023/05/09 06:37:01;;;;;;;1.70;1.60;;;15.70;37.60;;;;;;5050317;28;20040;-72
2023/05/09 06:39:26;;;;;;;2.08;1.60;;;15.70;36.90;;;;;;5047894;28;20025;-75
2023/05/09 06:41:52;;;;;;;1.60;1.50;;;15.70;36.60;;;;;;5034351;28;20026;-70
2023/05/09 06:44:18;;;;;;;1.95;1.52;;;15.70;36.70;;;;;;5040573;28;20041;-70
2023/05/09 06:46:43;;;;;;;1.63;1.52;;;15.70;36.60;;;;;;5035603;28;20034;-71
2023/05/09 06:49:09;;;;;;;2.33;1.67;;;15.70;36.70;;;;;;5036253;28;20087;-72
2023/05/09 06:51:35;;;;;;;1.50;1.40;;;15.80;36.70;;;;;;5035883;28;20380;-72
2023/05/09 06:54:01;;;;;;;1.63;1.30;;;15.80;36.60;;;;;;5035227;28;20083;-73
2023/05/09 06:56:27;;;;;;;1.50;1.40;;;15.90;36.60;;;;;;5035931;28;20078;-72
2023/05/09 06:58:53;;;;;;;1.50;1.40;;;15.90;36.50;;;;;;5036076;28;20033;-71
2023/05/09 07:01:18;;;;;;;2.17;1.40;;;16.00;36.40;;;;;;5036049;28;20036;-72
2023/05/09 07:03:46;;;;;;;1.67;1.58;;;16.00;36.40;;;;;;5036127;28;20030;-72
2023/05/09 07:06:12;;;;;;;2.58;1.70;;;16.00;36.30;;;;;;5035960;28;20025;-73
2023/05/09 07:08:38;;;;;;;1.50;1.40;;;16.00;36.20;;;;;;5036316;28;20040;-72
2023/05/09 07:11:03;;;;;;;1.30;1.20;;;16.10;36.00;;;;;;5035755;28;20025;-72
2023/05/09 07:13:29;;;;;;;1.63;1.33;;;16.00;35.90;;;;;;5035831;28;20037;-72
2023/05/09 07:15:55;;;;;;;1.60;1.50;;;16.00;35.90;;;;;;5035806;28;20053;-73
2023/05/09 07:18:20;;;;;;;1.40;1.30;;;16.00;36.00;;;;;;5035521;28;20065;-72
2023/05/09 07:20:46;;;;;;;1.70;1.60;;;16.10;36.00;;;;;;5034348;28;20017;-72
2023/05/09 07:23:11;;;;;;;1.50;1.40;;;16.10;35.90;;;;;;5035850;28;20033;-72
2023/05/09 07:25:37;;;;;;;1.50;1.40;;;16.10;35.80;;;;;;5035392;28;20564;-72
2023/05/09 07:28:03;;;;;;;6.00;1.50;;;16.10;35.70;;;;;;5035920;28;20037;-72
2023/05/09 07:30:28;;;;;;;1.65;1.33;;;16.10;35.70;;;;;;5035381;28;20088;-72
2023/05/09 07:32:54;;;;;;;1.30;1.20;;;16.10;35.70;;;;;;5035295;28;20041;-71
2023/05/09 07:35:20;;;;;;;1.70;1.38;;;16.10;35.60;;;;;;5035394;28;20072;-73
2023/05/09 07:37:45;;;;;;;1.88;1.50;;;16.20;35.70;;;;;;5034189;28;20196;-72
2023/05/09 07:40:11;;;;;;;1.52;1.40;;;16.20;35.50;;;;;;5034132;28;20025;-73
2023/05/09 07:42:37;;;;;;;1.10;1.10;;;16.20;35.30;;;;;;5035393;28;20022;-73
2023/05/09 07:45:04;;;;;;;1.60;1.50;;;16.20;35.40;;;;;;5035100;28;20057;-71
2023/05/09 07:47:31;;;;;;;1.42;1.33;;;16.30;35.40;;;;;;5035069;28;20029;-72
2023/05/09 07:49:57;;;;;;;1.58;1.48;;;16.30;35.40;;;;;;5034940;28;20464;-72
2023/05/09 07:52:22;;;;;;;1.23;1.15;;;16.30;35.30;;;;;;5033899;28;20124;-72
2023/05/09 07:54:48;;;;;;;1.50;1.40;;;16.40;35.30;;;;;;5035105;28;20034;-72
2023/05/09 07:57:15;;;;;;;1.50;1.40;;;16.40;35.10;;;;;;5035018;28;20022;-72
2023/05/09 07:59:41;;;;;;;1.45;1.30;;;16.40;35.10;;;;;;5035081;28;20037;-72
2023/05/09 08:02:07;;;;;;;1.42;1.20;;;16.50;35.10;;;;;;5033444;28;20025;-72
2023/05/09 08:04:36;;;;;;;1.42;1.33;;;16.50;35.00;;;;;;5034821;28;20413;-73
2023/05/09 08:07:02;;;;;;;1.67;1.30;;;16.60;35.00;;;;;;5035011;28;20460;-71
2023/05/09 08:09:28;;;;;;;1.38;1.05;;;16.60;34.90;;;;;;5034576;28;20463;-72
2023/05/09 08:11:54;;;;;;;1.50;1.40;;;16.70;34.90;;;;;;5034520;28;20088;-72
2023/05/09 08:14:19;;;;;;;1.40;1.30;;;16.70;34.80;;;;;;5033443;28;20026;-72
2023/05/09 08:16:45;;;;;;;1.60;1.50;;;16.80;34.70;;;;;;5034668;28;20464;-72
2023/05/09 08:19:10;;;;;;;1.63;1.35;;;16.80;34.50;;;;;;5034305;28;20025;-72
2023/05/09 08:21:36;;;;;;;1.40;1.30;;;16.90;34.60;;;;;;5034558;28;20029;-71
2023/05/09 08:24:02;;;;;;;2.63;1.38;;;16.90;34.60;;;;;;5034439;28;20029;-73
2023/05/09 08:26:28;;;;;;;1.63;1.52;;;17.00;34.60;;;;;;5034451;28;20033;-73
2023/05/09 08:28:53;;;;;;;1.30;1.20;;;17.10;34.70;;;;;;5033569;28;20075;-73
2023/05/09 08:31:19;;;;;;;1.73;1.35;;;17.10;34.60;;;;;;5033537;28;20460;-73
2023/05/09 08:33:45;;;;;;;1.55;1.42;;;17.20;34.60;;;;;;5034051;28;20025;-73
2023/05/09 08:36:10;;;;;;;1.67;1.45;;;17.20;34.40;;;;;;5034562;28;20461;-73
2023/05/09 08:38:39;;;;;;;1.42;1.33;;;17.30;34.40;;;;;;5034015;28;20025;-73
2023/05/09 08:41:04;;;;;;;2.15;1.33;;;17.30;34.00;;;;;;5034630;28;20021;-73
2023/05/09 08:43:32;;;;;;;1.65;1.30;;;17.30;33.90;;;;;;5034095;28;20031;-72
2023/05/09 08:46:02;;;;;;;1.60;1.50;;;17.30;34.00;;;;;;5034131;28;20022;-71
2023/05/09 08:48:29;;;;;;;1.40;1.30;;;17.30;34.00;;;;;;5034361;28;20038;-71
2023/05/09 08:50:55;;;;;;;1.60;1.50;;;17.30;33.90;;;;;;5034037;28;20074;-71
2023/05/09 08:53:21;;;;;;;1.40;1.30;;;17.30;33.90;;;;;;5033792;28;20033;-73
2023/05/09 08:55:49;;;;;;;1.30;1.20;;;17.30;34.50;;;;;;5033778;28;20029;-72
2023/05/09 08:58:18;;;;;;;1.33;1.20;;;17.30;33.90;;;;;;5033564;28;20424;-71
2023/05/09 09:00:45;;;;;;;1.45;1.35;;;17.30;33.90;;;;;;5033847;28;20087;-72
2023/05/09 09:03:11;;;;;;;1.25;1.17;;;17.30;33.90;;;;;;5033828;28;20047;-71
2023/05/09 09:05:40;;;;;;;1.90;1.20;;;17.30;33.90;;;;;;5032594;28;20448;-71
2023/05/09 09:08:07;;;;;;;1.40;1.30;;;17.30;34.00;;;;;;5033639;28;20030;-72
2023/05/09 09:10:33;;;;;;;2.05;1.40;;;17.40;34.00;;;;;;5033841;28;20029;-72
2023/05/09 09:13:03;;;;;;;1.45;1.35;;;17.40;33.90;;;;;;5033490;28;20033;-73
2023/05/09 09:15:34;;;;;;;1.65;1.55;;;17.40;33.90;;;;;;5032076;28;20544;-72
2023/05/09 09:18:07;;;;;;;1.10;1.10;;;17.50;33.90;;;;;;5034187;28;20483;-72
2023/05/09 09:20:34;;;;;;;1.60;1.35;;;17.60;33.90;;;;;;5032697;28;20388;-72
2023/05/09 09:23:03;;;;;;;1.10;1.10;;;17.70;33.80;;;;;;5033557;28;20025;-72
2023/05/09 09:25:29;;;;;;;1.67;1.48;;;17.80;33.70;;;;;;5033463;28;20116;-72
2023/05/09 09:27:54;;;;;;;1.27;1.10;;;17.90;33.80;;;;;;5034012;28;20509;-72
2023/05/09 09:30:23;;;;;;;1.45;1.35;;;17.90;33.50;;;;;;5033889;28;20046;-71
2023/05/09 09:32:49;;;;;;;1.70;1.10;;;18.00;33.50;;;;;;5032498;28;20487;-71
2023/05/09 09:35:16;;;;;;;1.20;1.10;;;18.10;33.50;;;;;;5032295;28;20111;-71
2023/05/09 09:37:42;;;;;;;1.15;1.13;;;18.20;33.40;;;;;;5033490;28;20037;-71
2023/05/09 09:40:10;;;;;;;1.30;1.20;;;18.30;33.40;;;;;;5032318;28;20037;-72
2023/05/09 09:42:46;;;;;;;1.50;1.40;;;18.40;33.30;;;;;;5039067;28;20056;-72
2023/05/09 09:45:17;;;;;;;1.20;1.10;;;18.50;33.20;;;;;;5056348;28;20024;-73
2023/05/09 09:47:44;;;;;;;1.52;1.38;;;18.60;33.10;;;;;;5057306;28;20029;-72
2023/05/09 09:50:18;;;;;;;1.38;1.30;;;18.70;33.00;;;;;;5057880;28;20112;-73
2023/05/09 09:52:52;;;;;;;1.65;1.42;;;18.90;32.90;;;;;;5055872;28;20029;-71
2023/05/09 09:55:19;;;;;;;1.17;1.08;;;19.00;32.70;;;;;;5057555;28;20380;-71
2023/05/09 09:57:47;;;;;;;1.50;1.40;;;19.00;32.60;;;;;;5057194;28;20033;-73
2023/05/09 10:00:16;;;;;;;1.30;1.20;;;19.10;32.70;;;;;;5057203;28;20179;-72
2023/05/09 10:02:48;;;;;;;1.58;1.20;;;19.10;32.60;;;;;;5039183;28;20029;-72
2023/05/09 10:05:27;;;;;;;1.50;1.40;;;19.20;32.50;;;;;;5057087;28;20016;-72
2023/05/09 10:08:00;;;;;;;1.40;1.30;;;19.40;32.50;;;;;;5057033;28;20025;-72
2023/05/09 10:10:31;;;;;;;1.73;1.20;;;19.40;32.40;;;;;;5056817;28;20028;-72
2023/05/09 10:12:59;;;;;;;1.42;1.33;;;19.50;32.40;;;;;;5057168;28;20039;-72
2023/05/09 10:15:27;;;;;;;1.65;1.42;;;19.50;32.40;;;;;;5056740;28;20029;-74
2023/05/09 10:17:57;;;;;;;1.50;1.40;;;19.50;32.30;;;;;;5056513;28;20033;-71
2023/05/09 10:20:24;;;;;;;1.45;1.30;;;19.60;32.20;;;;;;5055843;28;20025;-73
2023/05/09 10:22:53;;;;;;;1.40;1.30;;;19.70;32.20;;;;;;5055561;28;20112;-72
2023/05/09 10:25:21;;;;;;;1.40;1.30;;;19.80;32.10;;;;;;5056651;28;20029;-71
2023/05/09 10:27:48;;;;;;;1.20;1.17;;;19.80;32.00;;;;;;5056795;28;20027;-72
2023/05/09 10:30:21;;;;;;;0.93;0.90;;;19.90;32.00;;;;;;5056555;28;20049;-73
2023/05/09 10:33:01;;;;;;;1.27;1.17;;;19.90;31.70;;;;;;5056662;28;20028;-73
2023/05/09 10:35:31;;;;;;;1.45;1.25;;;20.00;31.70;;;;;;5055148;28;20035;-72
2023/05/09 10:38:00;;;;;;;1.20;1.10;;;20.00;31.70;;;;;;5056414;28;20025;-73
2023/05/09 10:40:27;;;;;;;1.83;1.10;;;20.10;31.60;;;;;;5056250;28;20021;-72
2023/05/09 10:42:52;;;;;;;1.55;1.23;;;20.10;31.50;;;;;;5056410;28;20029;-72
2023/05/09 10:45:22;;;;;;;1.10;1.02;;;20.20;31.50;;;;;;5056210;28;20455;-72
2023/05/09 10:47:50;;;;;;;1.20;1.10;;;20.30;31.40;;;;;;5055040;28;20048;-73
2023/05/09 10:50:16;;;;;;;1.38;1.27;;;20.30;31.40;;;;;;5056269;28;20025;-71
2023/05/09 10:53:10;;;;;;;1.30;1.20;;;20.40;31.50;;;;;;5054290;28;20090;-72
2023/05/09 10:55:53;;;;;;;1.17;1.08;;;20.40;31.20;;;;;;5056729;28;20021;-72
2023/05/09 10:58:20;;;;;;;1.10;1.00;;;20.40;31.30;;;;;;5056252;28;20036;-72
2023/05/09 11:00:50;;;;;;;1.92;1.38;;;20.50;31.40;;;;;;5056168;28;20417;-72
2023/05/09 11:03:19;;;;;;;1.30;1.20;;;20.50;31.20;;;;;;5054792;28;20482;-72
2023/05/09 11:05:47;;;;;;;1.33;1.23;;;20.60;31.20;;;;;;5055666;28;20537;-72
2023/05/09 11:08:27;;;;;;;1.92;1.50;;;20.60;31.10;;;;;;5056062;28;20368;-72
2023/05/09 11:10:54;;;;;;;1.35;1.23;;;20.60;31.10;;;;;;5056034;28;20108;-72
2023/05/09 11:13:24;;;;;;;1.25;1.15;;;20.70;31.20;;;;;;5055769;28;20055;-73
2023/05/09 11:16:10;;;;;;;1.30;1.20;;;20.70;31.20;;;;;;5055753;28;20036;-73
2023/05/09 11:18:50;;;;;;;2.42;1.50;;;20.70;31.10;;;;;;5054459;28;20037;-72
2023/05/09 11:21:19;;;;;;;1.42;1.33;;;20.80;31.00;;;;;;5055865;28;20478;-72
2023/05/09 11:23:45;;;;;;;1.88;1.38;;;20.70;31.10;;;;;;5055438;28;20470;-72
2023/05/09 11:26:11;;;;;;;1.40;1.27;;;20.70;31.00;;;;;;5054354;28;20021;-73
2023/05/09 11:28:37;;;;;;;1.15;1.05;;;20.70;31.00;;;;;;5055816;28;20028;-71
2023/05/09 11:31:10;;;;;;;1.00;1.00;;;20.80;31.00;;;;;;5036130;28;20045;-72
2023/05/09 11:33:37;;;;;;;1.20;1.10;;;20.80;30.90;;;;;;5035600;28;20029;-73
2023/05/09 11:36:19;;;;;;;1.25;1.20;;;20.90;30.90;;;;;;5034140;28;20460;-72
2023/05/09 11:38:46;;;;;;;1.30;1.20;;;20.90;30.70;;;;;;5035467;28;20025;-72
2023/05/09 11:41:12;;;;;;;1.25;1.13;;;20.90;30.80;;;;;;5034119;28;20456;-72
2023/05/09 11:43:41;;;;;;;1.70;1.23;;;21.00;30.80;;;;;;5034101;28;20095;-72
2023/05/09 11:46:07;;;;;;;2.80;1.10;;;21.00;30.70;;;;;;5035540;28;20028;-73
2023/05/09 11:48:41;;;;;;;1.30;1.20;;;21.00;30.50;;;;;;5035134;28;20108;-72
2023/05/09 11:51:06;;;;;;;1.33;1.23;;;21.10;30.40;;;;;;5035305;28;20132;-73
2023/05/09 11:53:32;;;;;;;1.67;0.98;;;21.10;30.40;;;;;;5033848;28;20539;-72
2023/05/09 11:56:02;;;;;;;1.00;1.00;;;21.10;30.30;;;;;;5034865;28;20032;-73
2023/05/09 11:58:28;;;;;;;1.35;1.25;;;21.10;30.10;;;;;;5035124;28;20116;-73
2023/05/09 12:00:53;;;;;;;1.40;1.27;;;21.00;30.00;;;;;;5034974;28;20100;-72
2023/05/09 12:03:19;;;;;;;4.07;1.30;;;20.90;30.10;;;;;;5034133;28;20041;-72
2023/05/09 12:05:47;;;;;;;1.20;1.10;;;20.90;30.10;;;;;;5034820;28;20045;-72
2023/05/09 12:08:14;;;;;;;1.20;1.13;;;20.90;30.10;;;;;;5033286;28;20502;-71
2023/05/09 12:10:40;;;;;;;1.13;1.13;;;20.80;30.10;;;;;;5033797;28;20483;-72
2023/05/09 12:13:05;;;;;;;1.75;1.40;;;20.90;30.00;;;;;;5034919;28;20033;-74
2023/05/09 12:15:37;;;;;;;2.30;1.17;;;20.80;30.00;;;;;;5033575;28;20497;-72
2023/05/09 12:18:05;;;;;;;2.67;1.05;;;20.80;30.00;;;;;;5033531;28;20111;-73
2023/05/09 12:20:46;;;;;;;1.65;1.00;;;20.80;30.00;;;;;;5033408;28;20110;-73
2023/05/09 12:23:13;;;;;;;1.63;1.38;;;20.80;30.00;;;;;;5034700;28;20032;-72
2023/05/09 12:25:45;;;;;;;1.60;1.30;;;20.80;30.00;;;;;;5033165;28;20029;-72
2023/05/09 12:28:11;;;;;;;1.73;1.23;;;20.90;30.00;;;;;;5033098;28;20091;-71
2023/05/09 12:30:37;;;;;;;1.02;1.02;;;20.90;30.00;;;;;;5049508;28;20147;-73
2023/05/09 12:33:03;;;;;;;1.20;1.13;;;20.80;29.90;;;;;;5052729;28;20174;-73
2023/05/09 12:35:29;;;;;;;2.67;1.13;;;20.80;29.90;;;;;;5054087;28;20029;-73
2023/05/09 12:37:57;;;;;;;2.33;1.48;;;20.90;30.00;;;;;;5054630;28;20039;-72
2023/05/09 12:40:23;;;;;;;1.85;1.38;;;20.90;29.90;;;;;;5052765;28;20025;-72
2023/05/09 12:42:49;;;;;;;1.58;1.48;;;20.90;29.90;;;;;;5054141;28;20521;-74
2023/05/09 12:45:14;;;;;;;1.30;1.20;;;20.90;29.90;;;;;;5053797;28;20033;-72
2023/05/09 12:47:40;;;;;;;1.67;1.00;;;21.00;29.90;;;;;;5053818;28;20028;-73
2023/05/09 12:50:08;;;;;;;1.20;1.10;;;21.00;29.90;;;;;;5052450;28;20025;-71